Current Weather

Cape Girardeau Rgnl

Cape Girardeau, Missouri (KCGI)

Report from: Monday, August 15, 2022 6:53 PM CDT
Current time: Monday, August 15, 2022 7:17 PM CDT

Nearby weather
Weather history
Weather forecast

Temperature26.1°C (79.0°F)
Dew point20.0°C (68.0°F)
Winds 10 kts (5.1 m/s, 11.5 mph) North-Northeast (30°)
Visibility10 mi. (16.1 km)
Clouds Sky clear
Altimeter29.96 in.Hg (1015 mB)
Relative humidity69 %
Density altitude1,555 ft. (474 m)
Sea-level pressure101.4 kPa (1014 mB, 29.95 in.Hg)
Max temp last 6 hours30.0°C (86.0°F)
Min temp last 6 hours26.1°C (79.0°F)
Remarks Fully automated report
Automated weather observing station with precipitation discriminator
Pressure rising more quickly
Flight conditions Visual Meteorological Conditions
Raw dataKCGI 152353Z AUTO 03010KT 10SM CLR 26/20 A2996 RMK AO2 SLP141 T02610200 10300 20261 53002
An error has occurred. This application may no longer respond until reloaded. Reload 🗙